createdAt,value
2023-03-26T00:02:18.739Z,8.90
2023-03-26T00:05:41.751Z,8.80
2023-03-26T00:09:07.150Z,8.80
2023-03-26T00:12:29.549Z,8.80
2023-03-26T00:15:53.514Z,8.70
2023-03-26T00:19:19.073Z,8.70
2023-03-26T00:22:41.828Z,8.60
2023-03-26T00:26:05.298Z,8.40
2023-03-26T00:29:28.174Z,8.40
2023-03-26T00:32:53.522Z,8.40
2023-03-26T00:36:20.837Z,8.30
2023-03-26T00:39:44.680Z,8.20
2023-03-26T00:43:18.689Z,8.10
2023-03-26T00:46:41.121Z,7.90
2023-03-26T00:50:15.683Z,7.80
2023-03-26T00:53:39.152Z,7.70
2023-03-26T00:57:01.987Z,7.50
2023-03-26T01:00:36.855Z,7.40
2023-03-26T01:04:24.602Z,7.30
2023-03-26T01:07:46.896Z,7.30
2023-03-26T01:11:25.556Z,7.20
2023-03-26T01:15:00.912Z,7.10
2023-03-26T01:18:27.407Z,7.00
2023-03-26T01:21:50.099Z,6.90
2023-03-26T01:25:13.016Z,7.00
2023-03-26T01:28:41.543Z,7.00
2023-03-26T01:32:16.656Z,6.80
2023-03-26T01:36:16.361Z,6.70
2023-03-26T01:39:53.479Z,6.70
2023-03-26T01:43:28.112Z,6.60
2023-03-26T01:46:54.357Z,6.50
2023-03-26T01:50:17.003Z,6.50
2023-03-26T01:53:44.180Z,6.50
2023-03-26T01:57:25.573Z,6.50
2023-03-26T02:01:02.440Z,6.40
2023-03-26T02:04:28.978Z,6.30
2023-03-26T02:08:22.822Z,6.20
2023-03-26T02:11:49.816Z,6.10
2023-03-26T02:15:12.806Z,6.20
2023-03-26T02:18:41.571Z,6.10
2023-03-26T02:22:04.536Z,6.00
2023-03-26T02:25:27.836Z,6.10
2023-03-26T02:28:50.707Z,6.00
2023-03-26T02:32:15.476Z,6.00
2023-03-26T02:35:38.652Z,5.90
2023-03-26T02:39:01.009Z,5.90
2023-03-26T02:42:26.593Z,5.90
2023-03-26T02:45:48.943Z,5.90
2023-03-26T02:49:31.266Z,5.80
2023-03-26T02:52:53.664Z,5.70
2023-03-26T02:56:16.171Z,5.70
2023-03-26T02:59:53.054Z,5.60
2023-03-26T03:03:38.317Z,5.70
2023-03-26T03:07:39.723Z,5.70
2023-03-26T03:11:12.697Z,5.70
2023-03-26T03:14:44.394Z,5.80
2023-03-26T03:18:10.391Z,5.80
2023-03-26T03:21:32.978Z,5.90
2023-03-26T03:24:57.913Z,5.90
2023-03-26T03:28:20.281Z,5.90
2023-03-26T03:31:42.831Z,5.80
2023-03-26T03:35:16.493Z,5.70
2023-03-26T03:38:44.873Z,5.90
2023-03-26T03:42:11.840Z,5.80
2023-03-26T03:45:34.853Z,5.80
2023-03-26T03:49:23.799Z,5.60
2023-03-26T03:52:46.671Z,5.50
2023-03-26T03:56:11.753Z,5.50
2023-03-26T03:59:54.164Z,5.40
2023-03-26T04:03:17.259Z,5.30
2023-03-26T04:06:39.948Z,5.20
2023-03-26T04:10:04.777Z,5.20
2023-03-26T04:13:46.759Z,5.10
2023-03-26T04:17:17.895Z,5.10
2023-03-26T04:20:46.644Z,5.00
2023-03-26T04:24:15.032Z,4.90
2023-03-26T04:28:07.358Z,4.90
2023-03-26T04:31:50.432Z,4.90
2023-03-26T04:35:16.689Z,4.80
2023-03-26T04:38:52.040Z,4.80
2023-03-26T04:42:33.012Z,4.80
2023-03-26T04:46:07.882Z,4.70
2023-03-26T04:49:37.151Z,4.80
2023-03-26T04:53:08.407Z,4.80
2023-03-26T04:56:57.604Z,4.90
2023-03-26T05:00:26.244Z,4.90
2023-03-26T05:03:53.378Z,5.00
2023-03-26T05:07:19.948Z,5.00
2023-03-26T05:10:48.668Z,5.10
2023-03-26T05:14:18.997Z,5.20
2023-03-26T05:17:44.326Z,5.50
2023-03-26T05:21:15.060Z,5.60
2023-03-26T05:24:56.362Z,5.60
2023-03-26T05:28:20.789Z,5.50
2023-03-26T05:32:06.746Z,5.50
2023-03-26T05:35:28.987Z,5.60
2023-03-26T05:38:52.439Z,5.70
2023-03-26T05:42:51.328Z,5.70
2023-03-26T05:46:25.764Z,6.20
2023-03-26T05:49:48.304Z,6.80
2023-03-26T05:53:10.554Z,7.10
2023-03-26T05:56:53.006Z,7.30
2023-03-26T06:00:33.874Z,7.50
2023-03-26T06:04:00.387Z,8.20
2023-03-26T06:07:37.666Z,9.30
2023-03-26T06:11:12.654Z,11.00
2023-03-26T06:14:34.911Z,12.80
2023-03-26T06:18:07.010Z,14.30
2023-03-26T06:21:51.559Z,15.80
2023-03-26T06:25:17.283Z,16.90
2023-03-26T06:28:57.744Z,17.90
2023-03-26T06:32:33.648Z,18.60
2023-03-26T06:36:01.593Z,19.60
2023-03-26T06:39:24.186Z,20.60
2023-03-26T06:43:48.354Z,20.90
2023-03-26T06:47:19.370Z,21.50
2023-03-26T06:50:59.904Z,22.20
2023-03-26T06:54:46.566Z,22.90
2023-03-26T06:58:27.374Z,23.60
2023-03-26T07:02:15.808Z,24.10
2023-03-26T07:05:56.330Z,24.30
2023-03-26T07:09:38.516Z,24.60
2023-03-26T07:13:23.347Z,25.10
2023-03-26T07:17:12.411Z,25.80
2023-03-26T07:21:10.347Z,25.80
2023-03-26T07:24:32.622Z,26.10
2023-03-26T07:28:29.647Z,26.10
2023-03-26T07:32:37.733Z,25.20
2023-03-26T07:36:54.703Z,23.70
2023-03-26T07:41:18.362Z,21.30
2023-03-26T07:45:03.091Z,21.30
2023-03-26T07:48:48.357Z,21.60
2023-03-26T07:52:35.216Z,22.60
2023-03-26T07:55:59.974Z,22.50
2023-03-26T07:59:57.804Z,22.20
2023-03-26T08:04:23.689Z,22.00
2023-03-26T08:08:13.855Z,21.40
2023-03-26T08:12:26.731Z,21.30
2023-03-26T08:16:30.367Z,20.60
2023-03-26T08:20:11.054Z,21.00
2023-03-26T08:23:55.838Z,21.90
2023-03-26T08:27:55.263Z,21.50
2023-03-26T08:31:33.398Z,21.30
2023-03-26T08:35:00.537Z,21.40
2023-03-26T08:38:24.493Z,20.90
2023-03-26T08:42:20.221Z,21.30
2023-03-26T08:46:00.359Z,20.70
2023-03-26T08:49:40.182Z,20.40
2023-03-26T08:53:16.095Z,20.70
2023-03-26T08:57:07.188Z,21.70
2023-03-26T09:00:50.840Z,22.50
2023-03-26T09:04:49.955Z,21.00
2023-03-26T09:08:30.383Z,21.00
2023-03-26T09:12:25.493Z,21.50
2023-03-26T09:16:06.487Z,22.10
2023-03-26T09:19:50.020Z,21.40
2023-03-26T09:23:26.352Z,20.70
2023-03-26T09:27:37.388Z,19.40
2023-03-26T09:31:19.339Z,19.20
2023-03-26T09:35:12.612Z,19.20
2023-03-26T09:38:47.701Z,19.60
2023-03-26T09:42:24.554Z,19.80
2023-03-26T09:46:21.353Z,19.90
2023-03-26T09:50:19.273Z,19.60
2023-03-26T09:54:01.901Z,19.50
2023-03-26T09:57:36.080Z,19.70
2023-03-26T10:05:30.318Z,20.20
2023-03-26T10:08:52.503Z,20.20
2023-03-26T10:12:40.505Z,19.40
2023-03-26T10:16:14.851Z,19.50
2023-03-26T10:19:51.432Z,19.70
2023-03-26T10:23:25.942Z,19.70
2023-03-26T10:27:18.760Z,19.50
2023-03-26T10:31:08.574Z,19.30
2023-03-26T10:35:08.199Z,19.00
2023-03-26T10:38:59.382Z,18.90
2023-03-26T10:42:50.896Z,18.50
2023-03-26T10:46:35.630Z,18.40
2023-03-26T10:50:22.656Z,18.40
2023-03-26T10:53:54.819Z,18.50
2023-03-26T10:57:35.320Z,18.90
2023-03-26T11:01:06.116Z,19.60
2023-03-26T11:05:04.227Z,20.90
2023-03-26T11:08:35.662Z,21.60
2023-03-26T11:12:03.541Z,21.50
2023-03-26T11:15:56.856Z,21.10
2023-03-26T11:19:39.114Z,20.80
2023-03-26T11:23:22.284Z,21.10
2023-03-26T11:26:56.563Z,20.10
2023-03-26T11:30:55.126Z,20.80
2023-03-26T11:34:28.624Z,20.60
2023-03-26T11:38:01.007Z,20.40
2023-03-26T11:41:28.824Z,20.60
2023-03-26T11:45:24.312Z,20.90
2023-03-26T11:48:52.680Z,20.30
2023-03-26T11:52:15.830Z,20.80
2023-03-26T11:55:41.283Z,20.80
2023-03-26T11:59:14.839Z,21.40
2023-03-26T12:02:47.405Z,21.20
2023-03-26T12:06:29.197Z,20.50
2023-03-26T12:10:18.515Z,19.60
2023-03-26T12:13:44.867Z,20.00
2023-03-26T12:17:11.958Z,20.10
2023-03-26T12:20:36.734Z,20.50
2023-03-26T12:24:05.203Z,20.70
2023-03-26T12:27:33.860Z,21.00
2023-03-26T12:31:13.823Z,20.60
2023-03-26T12:34:38.371Z,20.50
2023-03-26T12:38:19.237Z,20.20
2023-03-26T12:44:42.959Z,19.70
2023-03-26T12:45:31.863Z,19.20
2023-03-26T12:49:03.774Z,18.60
2023-03-26T12:52:39.653Z,18.20
2023-03-26T12:56:12.430Z,17.80
2023-03-26T13:00:06.295Z,17.70
2023-03-26T13:03:47.124Z,17.60
2023-03-26T13:07:27.871Z,17.40
2023-03-26T13:10:52.646Z,17.20
2023-03-26T13:14:17.320Z,17.10
2023-03-26T13:17:42.349Z,17.20
2023-03-26T13:21:22.108Z,17.10
2023-03-26T13:24:49.636Z,17.00
2023-03-26T13:28:48.975Z,17.10
2023-03-26T13:32:34.699Z,17.00
2023-03-26T13:36:24.213Z,16.90
2023-03-26T13:40:15.556Z,16.90
2023-03-26T13:44:11.189Z,17.00
2023-03-26T13:47:38.270Z,16.90
2023-03-26T13:51:15.459Z,16.90
2023-03-26T13:54:45.885Z,16.70
2023-03-26T13:58:10.976Z,16.70
2023-03-26T14:01:41.321Z,16.70
2023-03-26T14:05:17.631Z,16.70
2023-03-26T14:08:47.251Z,16.60
2023-03-26T14:12:32.373Z,16.60
2023-03-26T14:16:15.064Z,16.60
2023-03-26T14:19:52.252Z,16.40
2023-03-26T14:23:52.962Z,16.30
2023-03-26T14:27:49.300Z,16.10
2023-03-26T14:31:15.154Z,15.90
2023-03-26T14:35:04.826Z,15.70
2023-03-26T14:38:44.654Z,15.40
2023-03-26T14:42:33.399Z,15.00
2023-03-26T14:46:17.030Z,14.60
2023-03-26T14:49:46.106Z,13.90
2023-03-26T14:53:22.781Z,13.40
2023-03-26T14:57:10.913Z,13.20
2023-03-26T15:01:09.955Z,13.00
2023-03-26T15:04:43.750Z,12.80
2023-03-26T15:08:24.290Z,12.70
2023-03-26T15:12:33.374Z,12.50
2023-03-26T15:16:04.584Z,12.30
2023-03-26T15:20:04.185Z,12.20
2023-03-26T15:23:38.255Z,12.20
2023-03-26T15:27:24.653Z,12.20
2023-03-26T15:31:09.983Z,12.40
2023-03-26T15:34:58.310Z,12.60
2023-03-26T15:38:31.985Z,12.70
2023-03-26T15:42:07.641Z,12.70
2023-03-26T15:45:59.189Z,12.70
2023-03-26T15:49:23.926Z,12.70
2023-03-26T15:53:14.656Z,12.50
2023-03-26T15:56:54.756Z,12.10
2023-03-26T16:00:23.286Z,11.50
2023-03-26T16:03:57.133Z,11.00
2023-03-26T16:07:43.785Z,10.80
2023-03-26T16:11:12.623Z,10.70
2023-03-26T16:14:34.734Z,10.70
2023-03-26T16:18:12.297Z,10.70
2023-03-26T16:21:43.424Z,10.60
2023-03-26T16:25:27.223Z,10.60
2023-03-26T16:28:52.860Z,10.50
2023-03-26T16:32:28.962Z,10.50
2023-03-26T16:36:26.051Z,10.40
2023-03-26T16:39:48.609Z,10.40
2023-03-26T16:43:58.309Z,10.30
2023-03-26T16:47:28.681Z,10.30
2023-03-26T16:51:17.094Z,10.20
2023-03-26T16:54:43.555Z,10.20
2023-03-26T16:58:15.474Z,10.10
2023-03-26T17:01:50.005Z,9.80
2023-03-26T17:05:36.855Z,9.70
2023-03-26T17:09:17.773Z,9.80
2023-03-26T17:12:46.488Z,10.00
2023-03-26T17:16:26.822Z,10.00
2023-03-26T17:19:52.021Z,10.00
2023-03-26T17:23:19.702Z,10.00
2023-03-26T17:26:51.070Z,10.10
2023-03-26T17:30:41.132Z,10.10
2023-03-26T17:34:49.374Z,10.10
2023-03-26T17:38:17.696Z,10.10
2023-03-26T17:41:55.486Z,10.00
2023-03-26T17:45:20.600Z,9.90
2023-03-26T17:48:47.986Z,9.80
2023-03-26T17:52:58.938Z,9.70
2023-03-26T17:56:27.791Z,9.90
2023-03-26T17:59:53.124Z,9.90
2023-03-26T18:03:23.197Z,9.90
2023-03-26T18:06:45.131Z,10.00
2023-03-26T18:10:33.429Z,10.00
2023-03-26T18:14:14.356Z,10.00
2023-03-26T18:17:43.177Z,10.10
2023-03-26T18:21:07.253Z,9.90
2023-03-26T18:24:37.115Z,9.80
2023-03-26T18:28:02.136Z,9.70
2023-03-26T18:31:26.518Z,9.70
2023-03-26T18:34:53.342Z,9.70
2023-03-26T18:38:35.696Z,9.70
2023-03-26T18:42:00.562Z,9.70
2023-03-26T18:45:23.233Z,9.70
